sensor_id;sensor_type;location;lat;lon;timestamp;temperature;humidity
296;DHT22;132;48.770;9.200;2023-03-09T00:00:18;10.20;1.00
296;DHT22;132;48.770;9.200;2023-03-09T00:02:48;10.20;1.00
296;DHT22;132;48.770;9.200;2023-03-09T00:05:14;10.20;1.00
296;DHT22;132;48.770;9.200;2023-03-09T00:07:43;10.20;1.00
296;DHT22;132;48.770;9.200;2023-03-09T00:10:11;10.20;1.00
296;DHT22;132;48.770;9.200;2023-03-09T00:12:38;10.20;1.00
296;DHT22;132;48.770;9.200;2023-03-09T00:15:05;9.90;1.00
296;DHT22;132;48.770;9.200;2023-03-09T00:17:31;10.20;1.00
296;DHT22;132;48.770;9.200;2023-03-09T00:19:58;10.20;1.00
296;DHT22;132;48.770;9.200;2023-03-09T00:22:41;10.10;1.00
296;DHT22;132;48.770;9.200;2023-03-09T00:25:07;10.20;1.00
296;DHT22;132;48.770;9.200;2023-03-09T00:27:34;10.20;1.00
296;DHT22;132;48.770;9.200;2023-03-09T00:30:00;10.90;1.00
296;DHT22;132;48.770;9.200;2023-03-09T00:32:27;10.30;1.00
296;DHT22;132;48.770;9.200;2023-03-09T00:34:53;10.30;1.00
296;DHT22;132;48.770;9.200;2023-03-09T00:37:19;10.80;1.00
296;DHT22;132;48.770;9.200;2023-03-09T00:39:47;10.30;1.00
296;DHT22;132;48.770;9.200;2023-03-09T00:42:14;10.50;1.00
296;DHT22;132;48.770;9.200;2023-03-09T00:44:40;10.50;1.00
296;DHT22;132;48.770;9.200;2023-03-09T00:47:06;10.30;1.00
296;DHT22;132;48.770;9.200;2023-03-09T00:49:33;10.70;1.00
296;DHT22;132;48.770;9.200;2023-03-09T00:51:59;10.10;1.00
296;DHT22;132;48.770;9.200;2023-03-09T00:54:26;10.20;1.00
296;DHT22;132;48.770;9.200;2023-03-09T00:56:52;10.10;1.00
296;DHT22;132;48.770;9.200;2023-03-09T00:59:19;10.20;1.00
296;DHT22;132;48.770;9.200;2023-03-09T01:01:45;11.40;1.00
296;DHT22;132;48.770;9.200;2023-03-09T01:04:12;10.50;1.00
296;DHT22;132;48.770;9.200;2023-03-09T01:06:39;9.80;1.00
296;DHT22;132;48.770;9.200;2023-03-09T01:09:05;9.40;1.00
296;DHT22;132;48.770;9.200;2023-03-09T01:11:32;10.00;1.00
296;DHT22;132;48.770;9.200;2023-03-09T01:13:58;9.80;1.00
296;DHT22;132;48.770;9.200;2023-03-09T01:16:25;9.70;1.00
296;DHT22;132;48.770;9.200;2023-03-09T01:18:51;9.60;1.00
296;DHT22;132;48.770;9.200;2023-03-09T01:21:17;10.00;1.00
296;DHT22;132;48.770;9.200;2023-03-09T01:23:44;10.30;1.00
296;DHT22;132;48.770;9.200;2023-03-09T01:26:11;9.80;1.00
296;DHT22;132;48.770;9.200;2023-03-09T01:28:37;10.90;1.00
296;DHT22;132;48.770;9.200;2023-03-09T01:31:12;9.10;1.00
296;DHT22;132;48.770;9.200;2023-03-09T01:33:41;9.20;1.00
296;DHT22;132;48.770;9.200;2023-03-09T01:36:12;9.10;1.00
296;DHT22;132;48.770;9.200;2023-03-09T01:38:39;10.00;1.00
296;DHT22;132;48.770;9.200;2023-03-09T01:41:05;9.80;1.00
296;DHT22;132;48.770;9.200;2023-03-09T01:43:39;10.30;1.00
296;DHT22;132;48.770;9.200;2023-03-09T01:46:34;9.40;1.00
296;DHT22;132;48.770;9.200;2023-03-09T01:54:49;9.00;1.00
296;DHT22;132;48.770;9.200;2023-03-09T01:59:55;9.10;1.00
296;DHT22;132;48.770;9.200;2023-03-09T02:02:25;9.10;1.00
296;DHT22;132;48.770;9.200;2023-03-09T02:04:56;9.50;1.00
296;DHT22;132;48.770;9.200;2023-03-09T02:07:25;9.00;1.00
296;DHT22;132;48.770;9.200;2023-03-09T02:09:57;9.00;1.00
296;DHT22;132;48.770;9.200;2023-03-09T02:12:26;9.00;1.00
296;DHT22;132;48.770;9.200;2023-03-09T02:14:54;9.10;1.00
296;DHT22;132;48.770;9.200;2023-03-09T02:17:22;9.00;1.00
296;DHT22;132;48.770;9.200;2023-03-09T02:19:55;8.90;1.00
296;DHT22;132;48.770;9.200;2023-03-09T02:22:24;8.90;1.00
296;DHT22;132;48.770;9.200;2023-03-09T02:24:56;8.90;1.00
296;DHT22;132;48.770;9.200;2023-03-09T02:27:26;8.70;1.00
296;DHT22;132;48.770;9.200;2023-03-09T02:29:55;8.80;1.00
296;DHT22;132;48.770;9.200;2023-03-09T02:32:24;8.60;1.00
296;DHT22;132;48.770;9.200;2023-03-09T02:34:51;8.80;1.00
296;DHT22;132;48.770;9.200;2023-03-09T02:39:56;8.80;1.00
296;DHT22;132;48.770;9.200;2023-03-09T02:42:23;8.90;1.00
296;DHT22;132;48.770;9.200;2023-03-09T02:44:50;8.80;1.00
296;DHT22;132;48.770;9.200;2023-03-09T02:47:20;8.90;1.00
296;DHT22;132;48.770;9.200;2023-03-09T02:49:49;10.00;1.00
296;DHT22;132;48.770;9.200;2023-03-09T02:52:16;8.90;1.00
296;DHT22;132;48.770;9.200;2023-03-09T02:54:43;9.20;1.00
296;DHT22;132;48.770;9.200;2023-03-09T02:57:10;9.00;1.00
296;DHT22;132;48.770;9.200;2023-03-09T02:59:36;9.10;1.00
296;DHT22;132;48.770;9.200;2023-03-09T03:02:03;9.20;1.00
296;DHT22;132;48.770;9.200;2023-03-09T03:04:30;9.30;1.00
296;DHT22;132;48.770;9.200;2023-03-09T03:06:57;9.30;1.00
296;DHT22;132;48.770;9.200;2023-03-09T03:09:24;9.20;1.00
296;DHT22;132;48.770;9.200;2023-03-09T03:11:53;9.30;1.00
296;DHT22;132;48.770;9.200;2023-03-09T03:14:20;9.20;1.00
296;DHT22;132;48.770;9.200;2023-03-09T03:16:46;10.30;1.00
296;DHT22;132;48.770;9.200;2023-03-09T03:19:13;9.60;1.00
296;DHT22;132;48.770;9.200;2023-03-09T03:21:40;9.80;1.00
296;DHT22;132;48.770;9.200;2023-03-09T03:24:07;10.40;1.00
296;DHT22;132;48.770;9.200;2023-03-09T03:26:35;9.30;1.00
296;DHT22;132;48.770;9.200;2023-03-09T03:29:07;9.80;1.00
296;DHT22;132;48.770;9.200;2023-03-09T03:31:33;9.50;1.00
296;DHT22;132;48.770;9.200;2023-03-09T03:34:00;9.40;1.00
296;DHT22;132;48.770;9.200;2023-03-09T03:36:30;10.40;1.00
296;DHT22;132;48.770;9.200;2023-03-09T03:38:57;9.30;1.00
296;DHT22;132;48.770;9.200;2023-03-09T03:41:24;9.30;1.00
296;DHT22;132;48.770;9.200;2023-03-09T03:43:53;9.30;1.00
296;DHT22;132;48.770;9.200;2023-03-09T03:46:20;10.00;1.00
296;DHT22;132;48.770;9.200;2023-03-09T03:48:46;10.80;1.00
296;DHT22;132;48.770;9.200;2023-03-09T03:51:16;9.20;1.00
296;DHT22;132;48.770;9.200;2023-03-09T03:53:45;9.10;1.00
296;DHT22;132;48.770;9.200;2023-03-09T03:56:12;8.90;1.00
296;DHT22;132;48.770;9.200;2023-03-09T03:58:41;8.90;1.00
296;DHT22;132;48.770;9.200;2023-03-09T04:01:08;8.90;1.00
296;DHT22;132;48.770;9.200;2023-03-09T04:03:34;9.00;1.00
296;DHT22;132;48.770;9.200;2023-03-09T04:06:03;9.00;1.00
296;DHT22;132;48.770;9.200;2023-03-09T04:08:31;9.00;1.00
296;DHT22;132;48.770;9.200;2023-03-09T04:10:58;9.00;1.00
296;DHT22;132;48.770;9.200;2023-03-09T04:13:25;9.10;1.00
296;DHT22;132;48.770;9.200;2023-03-09T04:15:52;9.40;1.00
296;DHT22;132;48.770;9.200;2023-03-09T04:18:19;9.10;1.00
296;DHT22;132;48.770;9.200;2023-03-09T04:20:46;9.10;1.00
296;DHT22;132;48.770;9.200;2023-03-09T04:23:14;9.00;1.00
296;DHT22;132;48.770;9.200;2023-03-09T04:25:56;9.10;1.00
296;DHT22;132;48.770;9.200;2023-03-09T04:28:24;9.10;1.00
296;DHT22;132;48.770;9.200;2023-03-09T04:30:52;9.10;1.00
296;DHT22;132;48.770;9.200;2023-03-09T04:33:20;9.10;1.00
296;DHT22;132;48.770;9.200;2023-03-09T04:35:46;9.00;1.00
296;DHT22;132;48.770;9.200;2023-03-09T04:38:21;9.90;1.00
296;DHT22;132;48.770;9.200;2023-03-09T04:40:49;10.30;1.00
296;DHT22;132;48.770;9.200;2023-03-09T04:43:16;9.20;1.00
296;DHT22;132;48.770;9.200;2023-03-09T04:45:43;9.10;1.00
296;DHT22;132;48.770;9.200;2023-03-09T04:48:09;9.20;1.00
296;DHT22;132;48.770;9.200;2023-03-09T04:50:37;9.70;1.00
296;DHT22;132;48.770;9.200;2023-03-09T04:53:05;10.60;1.00
296;DHT22;132;48.770;9.200;2023-03-09T04:55:34;9.90;1.00
296;DHT22;132;48.770;9.200;2023-03-09T04:58:04;9.00;1.00
296;DHT22;132;48.770;9.200;2023-03-09T05:00:31;8.90;1.00
296;DHT22;132;48.770;9.200;2023-03-09T05:02:59;9.20;1.00
296;DHT22;132;48.770;9.200;2023-03-09T05:05:26;8.90;1.00
296;DHT22;132;48.770;9.200;2023-03-09T05:07:55;9.00;1.00
296;DHT22;132;48.770;9.200;2023-03-09T05:10:23;9.10;1.00
296;DHT22;132;48.770;9.200;2023-03-09T05:12:52;9.60;1.00
296;DHT22;132;48.770;9.200;2023-03-09T05:15:24;9.10;1.00
296;DHT22;132;48.770;9.200;2023-03-09T05:17:52;9.10;1.00
296;DHT22;132;48.770;9.200;2023-03-09T05:20:18;9.30;1.00
296;DHT22;132;48.770;9.200;2023-03-09T05:22:53;9.10;1.00
296;DHT22;132;48.770;9.200;2023-03-09T05:25:20;9.10;1.00
296;DHT22;132;48.770;9.200;2023-03-09T05:27:49;8.90;1.00
296;DHT22;132;48.770;9.200;2023-03-09T05:30:16;10.10;1.00
296;DHT22;132;48.770;9.200;2023-03-09T05:32:42;9.10;1.00
296;DHT22;132;48.770;9.200;2023-03-09T05:35:09;9.90;1.00
296;DHT22;132;48.770;9.200;2023-03-09T05:37:35;9.20;1.00
296;DHT22;132;48.770;9.200;2023-03-09T05:40:11;9.30;1.00
296;DHT22;132;48.770;9.200;2023-03-09T05:42:40;9.40;1.00
296;DHT22;132;48.770;9.200;2023-03-09T05:45:08;9.30;1.00
296;DHT22;132;48.770;9.200;2023-03-09T05:47:35;9.30;1.00
296;DHT22;132;48.770;9.200;2023-03-09T05:50:04;9.30;1.00
296;DHT22;132;48.770;9.200;2023-03-09T05:52:31;9.10;1.00
296;DHT22;132;48.770;9.200;2023-03-09T05:54:57;9.50;1.00
296;DHT22;132;48.770;9.200;2023-03-09T05:57:24;10.60;1.00
296;DHT22;132;48.770;9.200;2023-03-09T05:59:53;9.10;1.00
296;DHT22;132;48.770;9.200;2023-03-09T06:02:19;9.20;1.00
296;DHT22;132;48.770;9.200;2023-03-09T06:04:50;9.20;1.00
296;DHT22;132;48.770;9.200;2023-03-09T06:07:17;9.60;1.00
296;DHT22;132;48.770;9.200;2023-03-09T06:09:47;9.30;1.00
296;DHT22;132;48.770;9.200;2023-03-09T06:12:25;9.60;1.00
296;DHT22;132;48.770;9.200;2023-03-09T06:14:54;9.10;1.00
296;DHT22;132;48.770;9.200;2023-03-09T06:17:24;9.10;1.00
296;DHT22;132;48.770;9.200;2023-03-09T06:19:52;9.20;1.00
296;DHT22;132;48.770;9.200;2023-03-09T06:22:18;9.20;1.00
296;DHT22;132;48.770;9.200;2023-03-09T06:24:45;9.10;1.00
296;DHT22;132;48.770;9.200;2023-03-09T06:27:14;9.10;1.00
296;DHT22;132;48.770;9.200;2023-03-09T06:29:42;9.90;1.00
296;DHT22;132;48.770;9.200;2023-03-09T06:32:08;9.70;1.00
296;DHT22;132;48.770;9.200;2023-03-09T06:34:36;9.30;1.00
296;DHT22;132;48.770;9.200;2023-03-09T06:37:05;9.30;1.00
296;DHT22;132;48.770;9.200;2023-03-09T06:39:32;9.20;1.00
296;DHT22;132;48.770;9.200;2023-03-09T06:41:59;10.60;1.00
296;DHT22;132;48.770;9.200;2023-03-09T06:44:33;10.20;1.00
296;DHT22;132;48.770;9.200;2023-03-09T06:47:01;9.50;1.00
296;DHT22;132;48.770;9.200;2023-03-09T06:49:29;9.70;1.00
296;DHT22;132;48.770;9.200;2023-03-09T06:51:58;10.40;1.00
296;DHT22;132;48.770;9.200;2023-03-09T06:54:25;9.60;1.00
296;DHT22;132;48.770;9.200;2023-03-09T06:57:04;9.60;1.00
296;DHT22;132;48.770;9.200;2023-03-09T06:59:30;9.60;1.00
296;DHT22;132;48.770;9.200;2023-03-09T07:01:58;9.60;1.00
296;DHT22;132;48.770;9.200;2023-03-09T07:04:24;9.80;1.00
296;DHT22;132;48.770;9.200;2023-03-09T07:06:51;9.70;1.00
296;DHT22;132;48.770;9.200;2023-03-09T07:09:17;9.70;1.00
296;DHT22;132;48.770;9.200;2023-03-09T07:11:44;9.70;1.00
296;DHT22;132;48.770;9.200;2023-03-09T07:14:10;9.80;1.00
296;DHT22;132;48.770;9.200;2023-03-09T07:16:36;10.10;1.00
296;DHT22;132;48.770;9.200;2023-03-09T07:19:02;10.10;1.00
296;DHT22;132;48.770;9.200;2023-03-09T07:21:29;10.20;1.00
296;DHT22;132;48.770;9.200;2023-03-09T07:23:56;10.40;1.00
296;DHT22;132;48.770;9.200;2023-03-09T07:26:22;10.90;1.00
296;DHT22;132;48.770;9.200;2023-03-09T07:28:49;11.10;1.00
296;DHT22;132;48.770;9.200;2023-03-09T07:31:15;10.40;1.00
296;DHT22;132;48.770;9.200;2023-03-09T07:33:41;10.40;1.00
296;DHT22;132;48.770;9.200;2023-03-09T07:36:08;10.50;1.00
296;DHT22;132;48.770;9.200;2023-03-09T07:38:35;10.10;1.00
296;DHT22;132;48.770;9.200;2023-03-09T07:41:01;10.30;1.00
296;DHT22;132;48.770;9.200;2023-03-09T07:43:28;11.00;1.00
296;DHT22;132;48.770;9.200;2023-03-09T07:46:06;10.70;1.00
296;DHT22;132;48.770;9.200;2023-03-09T07:48:33;10.60;1.00
296;DHT22;132;48.770;9.200;2023-03-09T07:50:59;10.70;1.00
296;DHT22;132;48.770;9.200;2023-03-09T07:53:26;10.90;1.00
296;DHT22;132;48.770;9.200;2023-03-09T07:55:56;10.80;1.00
296;DHT22;132;48.770;9.200;2023-03-09T07:58:24;10.90;1.00
296;DHT22;132;48.770;9.200;2023-03-09T08:00:50;11.10;1.00
296;DHT22;132;48.770;9.200;2023-03-09T08:03:17;11.20;1.00
296;DHT22;132;48.770;9.200;2023-03-09T08:05:43;11.00;1.00
296;DHT22;132;48.770;9.200;2023-03-09T08:08:10;11.40;1.00
296;DHT22;132;48.770;9.200;2023-03-09T08:10:38;11.50;1.00
296;DHT22;132;48.770;9.200;2023-03-09T08:13:06;11.20;1.00
296;DHT22;132;48.770;9.200;2023-03-09T08:15:32;11.50;1.00
296;DHT22;132;48.770;9.200;2023-03-09T08:17:59;11.20;1.00
296;DHT22;132;48.770;9.200;2023-03-09T08:20:26;11.10;1.00
296;DHT22;132;48.770;9.200;2023-03-09T08:22:52;11.20;1.00
296;DHT22;132;48.770;9.200;2023-03-09T08:25:19;11.30;1.00
296;DHT22;132;48.770;9.200;2023-03-09T08:27:46;11.40;1.00
296;DHT22;132;48.770;9.200;2023-03-09T08:30:13;11.50;1.00
296;DHT22;132;48.770;9.200;2023-03-09T08:32:41;11.60;1.00
296;DHT22;132;48.770;9.200;2023-03-09T08:35:09;11.60;1.00
296;DHT22;132;48.770;9.200;2023-03-09T08:37:35;11.60;1.00
296;DHT22;132;48.770;9.200;2023-03-09T08:40:02;11.60;1.00
296;DHT22;132;48.770;9.200;2023-03-09T08:42:28;11.70;1.00
296;DHT22;132;48.770;9.200;2023-03-09T08:44:54;11.70;1.00
296;DHT22;132;48.770;9.200;2023-03-09T08:47:21;11.70;1.00
296;DHT22;132;48.770;9.200;2023-03-09T08:49:47;11.80;1.00
296;DHT22;132;48.770;9.200;2023-03-09T08:52:14;11.70;1.00
296;DHT22;132;48.770;9.200;2023-03-09T08:54:41;11.80;1.00
296;DHT22;132;48.770;9.200;2023-03-09T08:57:08;11.70;1.00
296;DHT22;132;48.770;9.200;2023-03-09T08:59:34;11.80;1.00
296;DHT22;132;48.770;9.200;2023-03-09T09:02:01;11.90;1.00
296;DHT22;132;48.770;9.200;2023-03-09T09:04:28;12.10;1.00
296;DHT22;132;48.770;9.200;2023-03-09T09:06:54;12.30;1.00
296;DHT22;132;48.770;9.200;2023-03-09T09:09:21;12.60;1.00
296;DHT22;132;48.770;9.200;2023-03-09T09:11:48;12.70;1.00
296;DHT22;132;48.770;9.200;2023-03-09T09:14:15;12.60;1.00
296;DHT22;132;48.770;9.200;2023-03-09T09:16:42;12.30;1.00
296;DHT22;132;48.770;9.200;2023-03-09T09:19:08;12.00;1.00
296;DHT22;132;48.770;9.200;2023-03-09T09:21:35;10.20;1.00
296;DHT22;132;48.770;9.200;2023-03-09T09:24:02;11.40;1.00
296;DHT22;132;48.770;9.200;2023-03-09T09:26:28;11.10;1.00
296;DHT22;132;48.770;9.200;2023-03-09T09:28:55;11.50;1.00
296;DHT22;132;48.770;9.200;2023-03-09T09:31:22;11.00;1.00
296;DHT22;132;48.770;9.200;2023-03-09T09:33:52;10.90;1.00
296;DHT22;132;48.770;9.200;2023-03-09T09:36:19;10.90;1.00
296;DHT22;132;48.770;9.200;2023-03-09T09:38:46;11.00;1.00
296;DHT22;132;48.770;9.200;2023-03-09T09:41:28;11.10;1.00
296;DHT22;132;48.770;9.200;2023-03-09T09:44:00;11.20;1.00
296;DHT22;132;48.770;9.200;2023-03-09T09:46:29;11.30;1.00
296;DHT22;132;48.770;9.200;2023-03-09T09:48:57;11.40;1.00
296;DHT22;132;48.770;9.200;2023-03-09T09:54:53;11.60;1.00
296;DHT22;132;48.770;9.200;2023-03-09T10:00:11;11.70;1.00
296;DHT22;132;48.770;9.200;2023-03-09T10:11:30;11.90;1.00
296;DHT22;132;48.770;9.200;2023-03-09T10:14:08;12.00;1.00
296;DHT22;132;48.770;9.200;2023-03-09T10:17:06;12.00;1.00
296;DHT22;132;48.770;9.200;2023-03-09T10:19:39;12.10;1.00
296;DHT22;132;48.770;9.200;2023-03-09T10:24:44;12.20;1.00
296;DHT22;132;48.770;9.200;2023-03-09T10:28:04;12.20;1.00
296;DHT22;132;48.770;9.200;2023-03-09T10:30:42;12.20;1.00
296;DHT22;132;48.770;9.200;2023-03-09T10:33:16;12.30;1.00
296;DHT22;132;48.770;9.200;2023-03-09T10:38:30;12.60;1.00
296;DHT22;132;48.770;9.200;2023-03-09T10:40:56;12.60;1.00
296;DHT22;132;48.770;9.200;2023-03-09T10:46:14;12.30;1.00
296;DHT22;132;48.770;9.200;2023-03-09T10:48:45;12.40;1.00
296;DHT22;132;48.770;9.200;2023-03-09T10:51:27;12.50;1.00
296;DHT22;132;48.770;9.200;2023-03-09T10:53:54;12.40;1.00
296;DHT22;132;48.770;9.200;2023-03-09T10:56:28;12.60;1.00
296;DHT22;132;48.770;9.200;2023-03-09T11:01:35;12.40;1.00
296;DHT22;132;48.770;9.200;2023-03-09T11:06:53;12.90;1.00
296;DHT22;132;48.770;9.200;2023-03-09T11:12:17;12.50;1.00
296;DHT22;132;48.770;9.200;2023-03-09T11:15:23;12.60;1.00
296;DHT22;132;48.770;9.200;2023-03-09T11:17:49;12.70;1.00
296;DHT22;132;48.770;9.200;2023-03-09T11:20:25;13.00;1.00
296;DHT22;132;48.770;9.200;2023-03-09T11:31:43;13.20;1.00
296;DHT22;132;48.770;9.200;2023-03-09T11:34:21;13.40;1.00
296;DHT22;132;48.770;9.200;2023-03-09T11:36:57;13.40;1.00
296;DHT22;132;48.770;9.200;2023-03-09T11:39:33;13.40;1.00
296;DHT22;132;48.770;9.200;2023-03-09T11:42:03;13.50;1.00
296;DHT22;132;48.770;9.200;2023-03-09T11:44:36;13.50;1.00
296;DHT22;132;48.770;9.200;2023-03-09T11:47:11;13.60;1.00
296;DHT22;132;48.770;9.200;2023-03-09T11:49:43;13.70;1.00
296;DHT22;132;48.770;9.200;2023-03-09T11:52:18;13.60;1.00
296;DHT22;132;48.770;9.200;2023-03-09T11:54:48;13.50;1.00
296;DHT22;132;48.770;9.200;2023-03-09T11:57:18;13.50;1.00
296;DHT22;132;48.770;9.200;2023-03-09T11:59:58;13.30;1.00
296;DHT22;132;48.770;9.200;2023-03-09T12:03:31;13.30;1.00
296;DHT22;132;48.770;9.200;2023-03-09T12:05:32;13.30;1.00
296;DHT22;132;48.770;9.200;2023-03-09T12:08:20;13.20;1.00
296;DHT22;132;48.770;9.200;2023-03-09T12:11:19;13.10;1.00
296;DHT22;132;48.770;9.200;2023-03-09T12:14:00;12.90;1.00
296;DHT22;132;48.770;9.200;2023-03-09T12:16:36;12.80;1.00
296;DHT22;132;48.770;9.200;2023-03-09T12:19:18;12.80;1.00
296;DHT22;132;48.770;9.200;2023-03-09T12:25:05;12.80;1.00
296;DHT22;132;48.770;9.200;2023-03-09T12:27:36;13.00;1.00
296;DHT22;132;48.770;9.200;2023-03-09T12:32:36;13.40;1.00
296;DHT22;132;48.770;9.200;2023-03-09T12:35:56;13.70;1.00
296;DHT22;132;48.770;9.200;2023-03-09T12:42:54;13.60;1.00
296;DHT22;132;48.770;9.200;2023-03-09T12:45:23;13.60;1.00
296;DHT22;132;48.770;9.200;2023-03-09T12:47:54;13.60;1.00
296;DHT22;132;48.770;9.200;2023-03-09T12:53:22;13.70;1.00
296;DHT22;132;48.770;9.200;2023-03-09T12:55:53;13.80;1.00
296;DHT22;132;48.770;9.200;2023-03-09T13:03:48;13.90;1.00
296;DHT22;132;48.770;9.200;2023-03-09T13:06:32;13.90;1.00
296;DHT22;132;48.770;9.200;2023-03-09T13:11:36;13.80;1.00
296;DHT22;132;48.770;9.200;2023-03-09T13:14:14;13.90;1.00
296;DHT22;132;48.770;9.200;2023-03-09T13:27:11;13.70;1.00
296;DHT22;132;48.770;9.200;2023-03-09T13:29:43;13.70;1.00
296;DHT22;132;48.770;9.200;2023-03-09T13:34:54;12.80;1.00
296;DHT22;132;48.770;9.200;2023-03-09T13:37:24;13.80;1.00
296;DHT22;132;48.770;9.200;2023-03-09T13:40:04;13.90;1.00
296;DHT22;132;48.770;9.200;2023-03-09T13:42:33;13.80;1.00
296;DHT22;132;48.770;9.200;2023-03-09T13:45:02;13.80;1.00
296;DHT22;132;48.770;9.200;2023-03-09T13:47:31;13.80;1.00
296;DHT22;132;48.770;9.200;2023-03-09T13:49:59;13.80;1.00
296;DHT22;132;48.770;9.200;2023-03-09T13:52:27;13.80;1.00
296;DHT22;132;48.770;9.200;2023-03-09T13:54:59;13.70;1.00
296;DHT22;132;48.770;9.200;2023-03-09T13:57:34;13.60;1.00
296;DHT22;132;48.770;9.200;2023-03-09T14:00:15;13.50;1.00
296;DHT22;132;48.770;9.200;2023-03-09T14:02:42;13.50;1.00
296;DHT22;132;48.770;9.200;2023-03-09T14:07:49;13.40;1.00
296;DHT22;132;48.770;9.200;2023-03-09T14:13:11;12.90;1.00
296;DHT22;132;48.770;9.200;2023-03-09T14:15:39;13.50;1.00
296;DHT22;132;48.770;9.200;2023-03-09T14:18:24;13.50;1.00
296;DHT22;132;48.770;9.200;2023-03-09T14:20:51;13.50;1.00
296;DHT22;132;48.770;9.200;2023-03-09T14:23:38;13.60;1.00
296;DHT22;132;48.770;9.200;2023-03-09T14:26:08;13.70;1.00
296;DHT22;132;48.770;9.200;2023-03-09T14:28:40;13.80;1.00
296;DHT22;132;48.770;9.200;2023-03-09T14:31:17;13.80;1.00
296;DHT22;132;48.770;9.200;2023-03-09T14:33:57;14.20;1.00
296;DHT22;132;48.770;9.200;2023-03-09T14:36:24;14.40;1.00
296;DHT22;132;48.770;9.200;2023-03-09T14:39:00;14.30;1.00
296;DHT22;132;48.770;9.200;2023-03-09T14:41:29;14.20;1.00
296;DHT22;132;48.770;9.200;2023-03-09T14:43:57;14.20;1.00
296;DHT22;132;48.770;9.200;2023-03-09T14:46:26;14.40;1.00
296;DHT22;132;48.770;9.200;2023-03-09T14:49:01;14.60;1.00
296;DHT22;132;48.770;9.200;2023-03-09T14:51:34;14.60;1.00
296;DHT22;132;48.770;9.200;2023-03-09T14:56:30;14.30;1.00
296;DHT22;132;48.770;9.200;2023-03-09T14:58:58;14.10;1.00
296;DHT22;132;48.770;9.200;2023-03-09T15:01:29;13.90;1.00
296;DHT22;132;48.770;9.200;2023-03-09T15:03:55;13.90;1.00
296;DHT22;132;48.770;9.200;2023-03-09T15:06:24;13.80;1.00
296;DHT22;132;48.770;9.200;2023-03-09T15:08:51;13.80;1.00
296;DHT22;132;48.770;9.200;2023-03-09T15:11:17;13.70;1.00
296;DHT22;132;48.770;9.200;2023-03-09T15:13:45;13.60;1.00
296;DHT22;132;48.770;9.200;2023-03-09T15:16:12;13.70;1.00
296;DHT22;132;48.770;9.200;2023-03-09T15:18:39;13.70;1.00
296;DHT22;132;48.770;9.200;2023-03-09T15:21:05;13.70;1.00
296;DHT22;132;48.770;9.200;2023-03-09T15:23:32;13.60;1.00
296;DHT22;132;48.770;9.200;2023-03-09T15:26:02;13.70;1.00
296;DHT22;132;48.770;9.200;2023-03-09T15:28:29;13.70;1.00
296;DHT22;132;48.770;9.200;2023-03-09T15:30:55;13.70;1.00
296;DHT22;132;48.770;9.200;2023-03-09T15:33:22;13.60;1.00
296;DHT22;132;48.770;9.200;2023-03-09T15:35:48;13.60;1.00
296;DHT22;132;48.770;9.200;2023-03-09T15:38:15;13.60;1.00
296;DHT22;132;48.770;9.200;2023-03-09T15:40:41;13.80;1.00
296;DHT22;132;48.770;9.200;2023-03-09T15:43:08;14.60;1.00
296;DHT22;132;48.770;9.200;2023-03-09T15:45:39;13.40;1.00
296;DHT22;132;48.770;9.200;2023-03-09T15:48:07;13.40;1.00
296;DHT22;132;48.770;9.200;2023-03-09T15:50:35;13.20;1.00
296;DHT22;132;48.770;9.200;2023-03-09T15:53:06;13.30;1.00
296;DHT22;132;48.770;9.200;2023-03-09T15:55:33;13.50;1.00
296;DHT22;132;48.770;9.200;2023-03-09T15:58:00;13.40;1.00
296;DHT22;132;48.770;9.200;2023-03-09T16:00:26;13.40;1.00
296;DHT22;132;48.770;9.200;2023-03-09T16:02:59;13.40;1.00
296;DHT22;132;48.770;9.200;2023-03-09T16:05:26;13.30;1.00
296;DHT22;132;48.770;9.200;2023-03-09T16:07:53;13.30;1.00
296;DHT22;132;48.770;9.200;2023-03-09T16:10:19;13.20;1.00
296;DHT22;132;48.770;9.200;2023-03-09T16:12:47;13.20;1.00
296;DHT22;132;48.770;9.200;2023-03-09T16:15:14;13.20;1.00
296;DHT22;132;48.770;9.200;2023-03-09T16:17:41;13.10;1.00
296;DHT22;132;48.770;9.200;2023-03-09T16:20:08;13.10;1.00
296;DHT22;132;48.770;9.200;2023-03-09T16:22:48;13.10;1.00
296;DHT22;132;48.770;9.200;2023-03-09T16:25:15;13.10;1.00
296;DHT22;132;48.770;9.200;2023-03-09T16:27:42;13.10;1.00
296;DHT22;132;48.770;9.200;2023-03-09T16:30:10;13.00;1.00
296;DHT22;132;48.770;9.200;2023-03-09T16:32:37;12.90;1.00
296;DHT22;132;48.770;9.200;2023-03-09T16:35:09;13.10;1.00
296;DHT22;132;48.770;9.200;2023-03-09T16:37:36;12.80;1.00
296;DHT22;132;48.770;9.200;2023-03-09T16:40:04;12.70;1.00
296;DHT22;132;48.770;9.200;2023-03-09T16:42:31;12.60;1.00
296;DHT22;132;48.770;9.200;2023-03-09T16:44:58;13.10;1.00
296;DHT22;132;48.770;9.200;2023-03-09T16:47:24;12.90;1.00
296;DHT22;132;48.770;9.200;2023-03-09T16:49:59;12.40;1.00
296;DHT22;132;48.770;9.200;2023-03-09T16:52:28;12.40;1.00
296;DHT22;132;48.770;9.200;2023-03-09T16:55:00;12.40;1.00
296;DHT22;132;48.770;9.200;2023-03-09T16:57:29;12.30;1.00
296;DHT22;132;48.770;9.200;2023-03-09T16:59:57;12.20;1.00
296;DHT22;132;48.770;9.200;2023-03-09T17:02:26;12.20;1.00
296;DHT22;132;48.770;9.200;2023-03-09T17:04:53;12.20;1.00
296;DHT22;132;48.770;9.200;2023-03-09T17:07:21;12.00;1.00
296;DHT22;132;48.770;9.200;2023-03-09T17:09:48;12.00;1.00
296;DHT22;132;48.770;9.200;2023-03-09T17:12:15;12.50;1.00
296;DHT22;132;48.770;9.200;2023-03-09T17:14:43;11.80;1.00
296;DHT22;132;48.770;9.200;2023-03-09T17:17:10;11.80;1.00
296;DHT22;132;48.770;9.200;2023-03-09T17:19:37;11.80;1.00
296;DHT22;132;48.770;9.200;2023-03-09T17:22:03;11.60;1.00
296;DHT22;132;48.770;9.200;2023-03-09T17:24:32;11.50;1.00
296;DHT22;132;48.770;9.200;2023-03-09T17:26:59;11.60;1.00
296;DHT22;132;48.770;9.200;2023-03-09T17:29:25;11.70;1.00
296;DHT22;132;48.770;9.200;2023-03-09T17:31:52;11.80;1.00
296;DHT22;132;48.770;9.200;2023-03-09T17:34:19;11.70;1.00
296;DHT22;132;48.770;9.200;2023-03-09T17:36:45;11.60;1.00
296;DHT22;132;48.770;9.200;2023-03-09T17:39:13;11.60;1.00
296;DHT22;132;48.770;9.200;2023-03-09T17:41:41;11.60;1.00
296;DHT22;132;48.770;9.200;2023-03-09T17:44:09;11.70;1.00
296;DHT22;132;48.770;9.200;2023-03-09T17:46:36;11.90;1.00
296;DHT22;132;48.770;9.200;2023-03-09T17:49:02;11.40;1.00
296;DHT22;132;48.770;9.200;2023-03-09T17:51:29;11.40;1.00
296;DHT22;132;48.770;9.200;2023-03-09T17:53:55;11.60;1.00
296;DHT22;132;48.770;9.200;2023-03-09T17:56:22;11.40;1.00
296;DHT22;132;48.770;9.200;2023-03-09T17:58:48;11.30;1.00
296;DHT22;132;48.770;9.200;2023-03-09T18:01:23;11.30;1.00
296;DHT22;132;48.770;9.200;2023-03-09T18:03:55;11.30;1.00
296;DHT22;132;48.770;9.200;2023-03-09T18:06:24;11.20;1.00
296;DHT22;132;48.770;9.200;2023-03-09T18:08:52;11.10;1.00
296;DHT22;132;48.770;9.200;2023-03-09T18:11:21;11.10;1.00
296;DHT22;132;48.770;9.200;2023-03-09T18:13:49;11.00;1.00
296;DHT22;132;48.770;9.200;2023-03-09T18:16:16;11.00;1.00
296;DHT22;132;48.770;9.200;2023-03-09T18:18:42;11.10;1.00
296;DHT22;132;48.770;9.200;2023-03-09T18:21:11;11.00;1.00
296;DHT22;132;48.770;9.200;2023-03-09T18:23:39;11.00;1.00
296;DHT22;132;48.770;9.200;2023-03-09T18:26:16;11.10;1.00
296;DHT22;132;48.770;9.200;2023-03-09T18:28:43;10.90;1.00
296;DHT22;132;48.770;9.200;2023-03-09T18:31:09;10.80;1.00
296;DHT22;132;48.770;9.200;2023-03-09T18:33:36;11.00;1.00
296;DHT22;132;48.770;9.200;2023-03-09T18:36:04;11.70;1.00
296;DHT22;132;48.770;9.200;2023-03-09T18:38:31;11.30;1.00
296;DHT22;132;48.770;9.200;2023-03-09T18:40:57;11.30;1.00
296;DHT22;132;48.770;9.200;2023-03-09T18:43:24;11.20;1.00